Time;durP1;ratioP1;P1;durP2;ratioP2;P2;SDS_P1;SDS_P2;PMS_P1;PMS_P2;Temp;Humidity;BMP_temperature;BMP_pressure;BME280_temperature;BME280_humidity;BME280_pressure;Samples;Min_cycle;Max_cycle;Signal;HPM_P1;HPM_P2
2023/08/28 00:00:13;;;;;;;29.40;28.30;;;22.60;90.00;;;;;;4960772;28;20476;-45
2023/08/28 00:02:40;;;;;;;29.23;28.03;;;22.60;89.90;;;;;;4963013;28;20847;-45
2023/08/28 00:05:07;;;;;;;29.00;28.00;;;22.60;89.90;;;;;;4962313;28;21042;-46
2023/08/28 00:07:35;;;;;;;31.10;30.00;;;22.60;90.00;;;;;;4959475;28;20876;-45
2023/08/28 00:10:02;;;;;;;29.10;28.10;;;22.60;90.00;;;;;;4959588;28;20563;-45
2023/08/28 00:12:29;;;;;;;30.50;29.50;;;22.60;89.80;;;;;;4959493;28;20896;-46
2023/08/28 00:14:56;;;;;;;30.00;28.80;;;22.60;90.00;;;;;;4959355;28;20909;-47
2023/08/28 00:17:23;;;;;;;29.20;28.20;;;22.60;90.00;;;;;;4961762;28;20484;-45
2023/08/28 00:19:49;;;;;;;28.67;27.67;;;22.50;89.90;;;;;;4959373;28;20484;-45
2023/08/28 00:22:16;;;;;;;28.87;27.90;;;22.50;89.90;;;;;;4960880;28;20480;-46
2023/08/28 00:24:44;;;;;;;29.53;28.33;;;22.50;90.00;;;;;;4962341;28;20507;-45
2023/08/28 00:27:11;;;;;;;28.70;27.70;;;22.50;90.00;;;;;;4961735;28;20476;-46
2023/08/28 00:29:38;;;;;;;29.17;28.07;;;22.50;90.00;;;;;;4959003;28;20568;-47
2023/08/28 00:32:06;;;;;;;28.80;27.80;;;22.50;90.00;;;;;;4958814;28;20485;-45
2023/08/28 00:34:33;;;;;;;27.73;26.73;;;22.50;90.00;;;;;;4951480;28;20877;-45
2023/08/28 00:36:59;;;;;;;30.63;29.43;;;22.50;89.90;;;;;;4959220;28;20540;-47
2023/08/28 00:39:27;;;;;;;28.17;27.17;;;22.50;90.00;;;;;;4962001;28;20468;-50
2023/08/28 00:41:55;;;;;;;28.70;27.70;;;22.50;90.00;;;;;;4960958;28;20530;-45
2023/08/28 00:44:22;;;;;;;26.57;25.67;;;22.50;90.10;;;;;;4961025;28;20507;-46
2023/08/28 00:46:49;;;;;;;29.23;28.23;;;22.50;90.20;;;;;;4962270;28;20978;-45
2023/08/28 00:49:16;;;;;;;29.30;28.20;;;22.50;90.20;;;;;;4960701;28;20476;-46
2023/08/28 00:51:44;;;;;;;30.33;29.17;;;22.50;90.20;;;;;;4959015;28;20445;-45
2023/08/28 00:54:11;;;;;;;29.43;28.43;;;22.50;90.30;;;;;;4959086;28;20477;-45
2023/08/28 00:56:39;;;;;;;29.27;28.27;;;22.50;90.30;;;;;;4962249;28;20475;-46
2023/08/28 00:59:07;;;;;;;29.33;28.33;;;22.50;90.30;;;;;;4962319;28;20457;-45
2023/08/28 01:01:34;;;;;;;28.70;27.70;;;22.40;90.20;;;;;;4951424;28;20472;-46
2023/08/28 01:04:01;;;;;;;28.83;27.83;;;22.40;90.30;;;;;;4958620;28;20507;-45
2023/08/28 01:06:42;;;;;;;29.27;28.20;;;22.40;90.40;;;;;;4961398;28;20856;-46
2023/08/28 01:09:19;;;;;;;29.93;28.73;;;22.40;90.30;;;;;;4961591;28;20479;-45
2023/08/28 01:11:51;;;;;;;29.00;28.00;;;22.40;90.40;;;;;;4958873;28;20459;-47
2023/08/28 01:14:25;;;;;;;27.87;26.87;;;22.40;90.40;;;;;;4959929;28;20493;-45
2023/08/28 01:16:54;;;;;;;29.40;28.40;;;22.40;90.40;;;;;;4962106;28;20479;-45
2023/08/28 01:19:29;;;;;;;29.03;28.03;;;22.40;90.40;;;;;;4954275;28;20480;-45
2023/08/28 01:22:05;;;;;;;28.93;28.03;;;22.40;90.30;;;;;;4961732;28;20455;-45
2023/08/28 01:24:32;;;;;;;30.80;29.70;;;22.40;90.20;;;;;;4958109;28;20476;-44
2023/08/28 01:27:01;;;;;;;30.03;29.00;;;22.40;90.20;;;;;;4958588;28;20448;-46
2023/08/28 01:29:29;;;;;;;30.20;29.20;;;22.40;90.30;;;;;;4961062;28;20897;-46
2023/08/28 01:31:56;;;;;;;29.70;28.60;;;22.40;90.20;;;;;;4961843;28;20547;-45
2023/08/28 01:34:23;;;;;;;27.80;26.80;;;22.30;90.30;;;;;;4958165;28;20998;-47
2023/08/28 01:36:57;;;;;;;29.23;28.23;;;22.30;90.20;;;;;;4958403;28;20453;-49
2023/08/28 01:39:30;;;;;;;29.07;28.07;;;22.30;90.20;;;;;;4960452;28;20495;-47
2023/08/28 01:41:58;;;;;;;41.60;40.23;;;22.30;90.10;;;;;;4961012;28;20975;-45
2023/08/28 01:44:31;;;;;;;29.03;28.03;;;22.30;90.10;;;;;;4962092;28;20495;-47
2023/08/28 01:46:58;;;;;;;28.43;27.43;;;22.30;90.10;;;;;;4965279;28;20890;-45
2023/08/28 01:49:29;;;;;;;29.37;28.37;;;22.30;90.00;;;;;;4962745;28;20452;-45
2023/08/28 01:51:56;;;;;;;30.70;29.70;;;22.30;90.10;;;;;;4961430;28;20506;-45
2023/08/28 01:54:24;;;;;;;28.50;27.57;;;22.30;90.10;;;;;;4963381;28;20499;-45
2023/08/28 01:56:51;;;;;;;30.00;28.90;;;22.30;90.10;;;;;;4964921;28;20491;-45
2023/08/28 01:59:18;;;;;;;28.80;27.80;;;22.20;90.20;;;;;;4963473;28;20986;-45
2023/08/28 02:01:46;;;;;;;29.00;28.00;;;22.20;90.20;;;;;;4961396;28;20872;-47
2023/08/28 02:04:13;;;;;;;28.30;27.20;;;22.20;90.20;;;;;;4961671;28;20496;-46
2023/08/28 02:06:40;;;;;;;28.40;27.40;;;22.20;90.20;;;;;;4964804;28;20483;-45
2023/08/28 02:09:07;;;;;;;29.47;28.47;;;22.20;90.20;;;;;;4964874;28;20530;-45
2023/08/28 02:11:34;;;;;;;29.17;28.17;;;22.20;90.10;;;;;;4960924;28;20604;-46
2023/08/28 02:14:01;;;;;;;29.70;28.60;;;22.20;90.10;;;;;;4961045;28;20504;-46
2023/08/28 02:16:28;;;;;;;28.90;27.90;;;22.20;90.10;;;;;;4963635;28;20523;-45
2023/08/28 02:18:56;;;;;;;31.90;30.80;;;22.20;90.20;;;;;;4964536;28;20523;-47
2023/08/28 02:21:23;;;;;;;31.27;30.17;;;22.20;90.40;;;;;;4962430;28;20479;-47
2023/08/28 02:23:50;;;;;;;28.70;27.70;;;22.10;90.20;;;;;;4960742;28;20508;-45
2023/08/28 02:26:17;;;;;;;30.83;29.70;;;22.20;90.40;;;;;;4962009;28;20479;-44
2023/08/28 02:28:44;;;;;;;29.27;27.97;;;22.10;90.30;;;;;;4964274;28;20544;-46
2023/08/28 02:31:10;;;;;;;29.27;28.27;;;22.20;90.20;;;;;;4964112;28;20582;-45
2023/08/28 02:33:37;;;;;;;29.40;28.40;;;22.20;90.20;;;;;;4960720;28;20503;-45
2023/08/28 02:36:06;;;;;;;29.53;28.53;;;22.10;90.10;;;;;;4961277;28;20618;-46
2023/08/28 02:38:33;;;;;;;28.90;27.90;;;22.10;90.20;;;;;;4963681;28;20902;-45
2023/08/28 02:41:05;;;;;;;30.03;28.63;;;22.10;90.20;;;;;;4964228;28;20959;-45
2023/08/28 02:43:32;;;;;;;28.93;27.90;;;22.10;90.20;;;;;;4961117;28;21009;-45
2023/08/28 02:45:59;;;;;;;29.10;28.00;;;22.10;90.20;;;;;;4961004;28;20495;-45
2023/08/28 02:48:26;;;;;;;29.30;28.30;;;22.10;90.20;;;;;;4962711;28;20484;-45
2023/08/28 02:50:53;;;;;;;29.60;28.40;;;22.10;90.10;;;;;;4963843;28;20566;-46
2023/08/28 02:53:21;;;;;;;31.00;29.80;;;22.10;90.20;;;;;;4962682;28;20558;-46
2023/08/28 02:56:29;;;;;;;30.40;29.40;;;22.10;90.20;;;;;;4959407;28;20960;-45
2023/08/28 02:58:56;;;;;;;29.73;28.73;;;22.10;90.30;;;;;;4936826;28;20487;-46
2023/08/28 03:01:23;;;;;;;29.73;28.73;;;22.00;90.30;;;;;;4962261;28;20707;-45
2023/08/28 03:03:50;;;;;;;32.20;31.10;;;22.00;90.40;;;;;;4963720;28;20483;-46
2023/08/28 03:06:17;;;;;;;30.80;29.70;;;22.00;90.50;;;;;;4963105;28;20474;-45
2023/08/28 03:08:45;;;;;;;31.80;30.70;;;22.00;90.50;;;;;;4960311;28;20473;-45
2023/08/28 03:11:12;;;;;;;30.73;29.63;;;22.00;90.60;;;;;;4960239;28;20531;-48
2023/08/28 03:13:39;;;;;;;30.77;29.67;;;22.00;90.50;;;;;;4963470;28;21267;-45
2023/08/28 03:16:06;;;;;;;29.17;28.07;;;22.00;90.90;;;;;;4963812;28;20480;-46
2023/08/28 03:18:33;;;;;;;31.60;30.40;;;22.00;90.60;;;;;;4960767;28;20468;-45
2023/08/28 03:20:59;;;;;;;31.73;30.53;;;22.00;90.50;;;;;;4960077;28;20544;-45
2023/08/28 03:23:26;;;;;;;31.73;30.63;;;22.00;90.50;;;;;;4962084;28;20503;-50
2023/08/28 03:25:54;;;;;;;30.20;29.00;;;22.00;90.50;;;;;;4964914;28;21027;-48
2023/08/28 03:28:21;;;;;;;29.00;27.90;;;22.00;90.60;;;;;;4961348;28;20480;-46
2023/08/28 03:30:48;;;;;;;29.90;28.80;;;22.00;90.70;;;;;;4963534;28;20941;-45
2023/08/28 03:33:15;;;;;;;32.33;31.20;;;22.00;90.80;;;;;;4962751;28;20495;-45
2023/08/28 03:35:42;;;;;;;32.33;31.17;;;22.00;90.80;;;;;;4959975;28;20468;-45
2023/08/28 03:38:09;;;;;;;34.23;32.73;;;22.00;90.80;;;;;;4960060;28;20503;-46
2023/08/28 03:40:36;;;;;;;31.13;30.03;;;22.00;90.80;;;;;;4963004;28;20464;-45
2023/08/28 03:43:04;;;;;;;30.40;29.17;;;21.90;90.70;;;;;;4963306;28;20539;-45
2023/08/28 03:45:31;;;;;;;32.10;31.00;;;22.00;90.70;;;;;;4960452;28;20456;-45
2023/08/28 03:47:58;;;;;;;32.00;30.80;;;22.00;90.70;;;;;;4959993;28;20487;-47
2023/08/28 03:50:28;;;;;;;31.60;30.50;;;21.90;90.60;;;;;;4961392;28;20477;-45
2023/08/28 03:52:56;;;;;;;31.80;30.70;;;21.90;90.60;;;;;;4963221;28;20527;-45
2023/08/28 03:55:23;;;;;;;33.37;32.07;;;21.90;90.60;;;;;;4961644;28;20441;-46
2023/08/28 03:57:50;;;;;;;33.37;32.07;;;21.90;90.60;;;;;;4959520;28;20484;-48
2023/08/28 04:00:18;;;;;;;34.77;33.43;;;21.90;90.70;;;;;;4960050;28;20477;-47
2023/08/28 04:02:45;;;;;;;36.23;34.83;;;21.90;90.80;;;;;;4963209;28;20472;-48
2023/08/28 04:05:12;;;;;;;37.30;36.00;;;21.90;90.90;;;;;;4962809;28;20895;-44
2023/08/28 04:07:39;;;;;;;37.20;35.90;;;21.90;90.90;;;;;;4951282;28;20437;-45
2023/08/28 04:10:07;;;;;;;35.70;34.40;;;21.90;90.90;;;;;;4959563;28;20457;-45
2023/08/28 04:12:34;;;;;;;37.07;35.40;;;21.90;90.90;;;;;;4962125;28;20593;-45
2023/08/28 04:15:01;;;;;;;38.27;36.87;;;21.90;90.90;;;;;;4962745;28;20539;-46
2023/08/28 04:17:29;;;;;;;38.93;37.53;;;21.90;90.90;;;;;;4960942;28;20480;-46
2023/08/28 04:19:57;;;;;;;36.77;35.43;;;21.90;90.90;;;;;;4959171;28;20472;-45
2023/08/28 04:22:24;;;;;;;37.17;35.77;;;21.90;90.80;;;;;;4960633;28;20476;-47
2023/08/28 04:24:52;;;;;;;35.00;33.50;;;21.90;90.90;;;;;;4962704;28;20499;-47
2023/08/28 04:27:19;;;;;;;36.63;34.97;;;21.90;90.70;;;;;;4961991;28;20882;-45
2023/08/28 04:29:46;;;;;;;40.40;38.77;;;21.90;90.90;;;;;;4959149;28;20485;-46
2023/08/28 04:32:12;;;;;;;33.70;32.50;;;21.80;90.70;;;;;;4959253;28;20512;-48
2023/08/28 04:34:41;;;;;;;39.73;37.97;;;21.80;90.70;;;;;;4962105;28;20499;-45
2023/08/28 04:37:08;;;;;;;39.50;37.90;;;21.80;91.60;;;;;;4962335;28;20480;-45
2023/08/28 04:39:34;;;;;;;39.10;37.50;;;21.80;91.50;;;;;;4959884;28;20491;-45
2023/08/28 04:42:01;;;;;;;41.70;38.90;;;21.80;91.80;;;;;;4959045;28;20476;-45
2023/08/28 04:44:28;;;;;;;41.53;38.30;;;21.80;91.90;;;;;;4958216;28;20507;-46
2023/08/28 04:46:55;;;;;;;40.43;38.53;;;21.80;93.20;;;;;;4958004;28;20551;-45
2023/08/28 04:49:22;;;;;;;41.83;39.90;;;21.80;93.40;;;;;;4961338;28;20475;-46
2023/08/28 04:51:50;;;;;;;41.20;39.10;;;21.80;93.20;;;;;;4959026;28;20819;-46
2023/08/28 04:54:17;;;;;;;42.80;40.80;;;21.80;93.10;;;;;;4958728;28;20500;-47
2023/08/28 04:56:44;;;;;;;43.67;41.10;;;21.90;92.90;;;;;;4962144;28;20483;-45
2023/08/28 04:59:11;;;;;;;42.37;40.17;;;21.90;92.80;;;;;;4962307;28;20472;-46
2023/08/28 05:01:38;;;;;;;39.67;37.77;;;21.90;92.60;;;;;;4959193;28;20986;-46
2023/08/28 05:04:06;;;;;;;39.90;38.20;;;21.90;92.60;;;;;;4958765;28;20460;-46
2023/08/28 05:06:33;;;;;;;38.63;37.03;;;21.90;92.50;;;;;;4961095;28;20453;-46
2023/08/28 05:09:01;;;;;;;39.20;37.50;;;21.90;92.40;;;;;;4962029;28;20897;-45
2023/08/28 05:11:28;;;;;;;38.80;37.40;;;21.90;92.30;;;;;;4960269;28;20574;-48
2023/08/28 05:13:56;;;;;;;39.10;37.60;;;21.90;92.30;;;;;;4958571;28;21029;-45
2023/08/28 05:16:23;;;;;;;41.40;39.60;;;21.90;92.50;;;;;;4959489;28;20456;-45
2023/08/28 05:18:50;;;;;;;42.00;40.17;;;21.90;92.10;;;;;;4961078;28;20899;-46
2023/08/28 05:21:17;;;;;;;40.30;38.70;;;21.90;92.10;;;;;;4961819;28;20474;-46
2023/08/28 05:23:44;;;;;;;42.77;41.17;;;21.90;92.10;;;;;;4958226;28;20495;-47
2023/08/28 05:26:12;;;;;;;42.23;40.63;;;21.90;92.00;;;;;;4958626;28;20495;-45
2023/08/28 05:28:40;;;;;;;41.43;39.73;;;21.90;92.00;;;;;;4961447;28;20527;-47
2023/08/28 05:31:07;;;;;;;40.20;38.70;;;21.90;91.90;;;;;;4961765;28;20487;-45
2023/08/28 05:33:35;;;;;;;42.47;40.63;;;21.90;91.90;;;;;;4959414;28;20502;-45
2023/08/28 05:36:02;;;;;;;41.60;39.97;;;21.90;91.80;;;;;;4958372;28;20525;-46
2023/08/28 05:38:31;;;;;;;41.50;39.90;;;21.90;91.80;;;;;;4959887;28;20444;-45
2023/08/28 05:40:57;;;;;;;42.17;40.50;;;21.80;91.60;;;;;;4961733;28;20476;-45
2023/08/28 05:43:26;;;;;;;40.43;38.87;;;21.80;92.00;;;;;;4960560;28;20488;-47
2023/08/28 05:45:53;;;;;;;41.23;39.53;;;21.80;91.70;;;;;;4958152;28;20476;-46
2023/08/28 05:48:19;;;;;;;37.20;35.70;;;21.80;91.70;;;;;;4958344;28;20453;-46
2023/08/28 05:50:50;;;;;;;39.53;38.03;;;21.80;91.70;;;;;;4961446;28;20472;-45
2023/08/28 05:53:17;;;;;;;38.17;36.67;;;21.80;91.60;;;;;;4961537;28;20499;-45
2023/08/28 05:55:44;;;;;;;39.37;37.90;;;21.80;91.60;;;;;;4961429;28;20472;-46
2023/08/28 05:58:10;;;;;;;37.93;36.23;;;21.80;91.60;;;;;;4961490;28;20444;-45
2023/08/28 06:00:39;;;;;;;38.03;36.53;;;21.80;91.60;;;;;;4958851;28;20525;-45
2023/08/28 06:03:06;;;;;;;38.30;36.80;;;21.80;91.60;;;;;;4957933;28;20476;-45
2023/08/28 06:05:33;;;;;;;40.53;38.83;;;21.80;91.70;;;;;;4959826;28;20540;-45
2023/08/28 06:08:00;;;;;;;38.70;36.93;;;21.80;91.70;;;;;;4961523;28;20486;-45
2023/08/28 06:10:29;;;;;;;39.17;37.67;;;21.80;91.70;;;;;;4960107;28;20467;-46
2023/08/28 06:12:57;;;;;;;40.87;39.37;;;21.80;91.70;;;;;;4957950;28;20516;-48
2023/08/28 06:15:25;;;;;;;39.20;37.60;;;21.80;91.70;;;;;;4958377;28;20955;-45
2023/08/28 06:17:53;;;;;;;38.87;37.27;;;21.80;91.70;;;;;;4961301;28;20450;-45
2023/08/28 06:20:22;;;;;;;39.77;38.17;;;21.80;91.70;;;;;;4960892;28;20455;-45
2023/08/28 06:22:49;;;;;;;38.20;36.70;;;21.80;91.70;;;;;;4957809;28;20445;-45
2023/08/28 06:25:16;;;;;;;39.93;38.10;;;21.80;91.80;;;;;;4957502;28;20488;-45
2023/08/28 06:27:43;;;;;;;41.77;40.27;;;21.80;91.70;;;;;;4960724;28;20476;-45
2023/08/28 06:30:11;;;;;;;41.17;39.27;;;21.80;91.80;;;;;;4962363;28;20472;-45
2023/08/28 06:32:38;;;;;;;37.40;36.00;;;21.80;91.80;;;;;;4961941;28;20511;-47
2023/08/28 06:35:07;;;;;;;36.77;35.37;;;21.80;91.80;;;;;;4961018;28;20504;-46
2023/08/28 06:37:34;;;;;;;36.73;35.23;;;21.80;91.90;;;;;;4962770;28;20449;-46
2023/08/28 06:40:02;;;;;;;36.80;35.37;;;21.80;91.90;;;;;;4964229;28;20464;-45
2023/08/28 06:42:29;;;;;;;36.47;35.07;;;21.80;91.80;;;;;;4962948;28;20477;-46
2023/08/28 06:44:56;;;;;;;37.80;36.30;;;21.80;91.90;;;;;;4960728;28;20522;-46
2023/08/28 06:47:23;;;;;;;37.20;35.70;;;21.80;92.00;;;;;;4961169;28;20949;-46
2023/08/28 06:49:50;;;;;;;37.93;36.43;;;21.80;92.00;;;;;;4964157;28;20527;-46
2023/08/28 06:52:19;;;;;;;37.80;36.30;;;21.80;92.00;;;;;;4964044;28;20507;-48
2023/08/28 06:54:46;;;;;;;41.00;39.40;;;21.80;92.00;;;;;;4952614;28;20551;-47
2023/08/28 06:57:13;;;;;;;40.00;38.40;;;21.80;92.00;;;;;;4960807;28;20889;-46
2023/08/28 06:59:40;;;;;;;40.20;38.60;;;21.80;92.10;;;;;;4963153;28;20445;-46
2023/08/28 07:02:07;;;;;;;37.53;36.03;;;21.80;92.00;;;;;;4964058;28;20476;-47
2023/08/28 07:04:33;;;;;;;36.67;35.20;;;21.80;92.00;;;;;;4962001;28;20467;-47
2023/08/28 07:07:00;;;;;;;36.80;35.30;;;21.80;92.00;;;;;;4960452;28;20476;-47
2023/08/28 07:09:28;;;;;;;38.70;37.00;;;21.80;92.10;;;;;;4961238;28;20473;-47
2023/08/28 07:11:55;;;;;;;36.60;35.20;;;21.80;92.20;;;;;;4963853;28;21041;-46
2023/08/28 07:14:22;;;;;;;36.33;34.83;;;21.80;92.10;;;;;;4963340;28;20538;-48
2023/08/28 07:16:49;;;;;;;37.73;36.20;;;21.80;92.10;;;;;;4960412;28;20944;-46
2023/08/28 07:19:16;;;;;;;38.00;36.50;;;21.80;92.10;;;;;;4960448;28;20448;-46
2023/08/28 07:21:43;;;;;;;37.57;36.17;;;21.80;92.10;;;;;;4963077;28;20474;-46
2023/08/28 07:24:10;;;;;;;37.00;35.50;;;21.80;92.20;;;;;;4963284;28;20983;-45
2023/08/28 07:26:38;;;;;;;39.33;37.73;;;21.80;92.20;;;;;;4961547;28;20558;-46
2023/08/28 07:29:05;;;;;;;37.90;36.50;;;21.80;92.30;;;;;;4960134;28;20488;-46
2023/08/28 07:31:32;;;;;;;34.83;33.53;;;21.80;92.30;;;;;;4961314;28;20480;-46
2023/08/28 07:34:00;;;;;;;34.60;33.30;;;21.80;92.30;;;;;;4963286;28;20499;-47
2023/08/28 07:36:27;;;;;;;35.93;34.53;;;21.80;92.30;;;;;;4962618;28;20440;-46
2023/08/28 07:38:53;;;;;;;34.80;33.37;;;21.80;92.30;;;;;;4960224;28;20472;-46
2023/08/28 07:41:20;;;;;;;38.00;36.47;;;21.80;92.30;;;;;;4959395;28;20568;-45
2023/08/28 07:43:49;;;;;;;38.03;36.53;;;21.80;92.40;;;;;;4951882;28;20457;-47
2023/08/28 07:46:16;;;;;;;36.40;35.00;;;21.80;92.40;;;;;;4960088;28;20872;-46
2023/08/28 07:48:43;;;;;;;35.67;34.17;;;21.80;92.50;;;;;;4962551;28;20897;-45
2023/08/28 07:51:10;;;;;;;37.20;35.80;;;21.80;92.40;;;;;;4963229;28;20558;-46
2023/08/28 07:53:37;;;;;;;36.93;35.53;;;21.80;92.40;;;;;;4960874;28;20519;-46
2023/08/28 07:56:05;;;;;;;34.20;32.90;;;21.80;92.40;;;;;;4959916;28;20449;-46
2023/08/28 07:58:32;;;;;;;36.13;34.57;;;21.80;92.70;;;;;;4961011;28;20476;-45
2023/08/28 08:01:01;;;;;;;37.50;36.00;;;21.80;92.70;;;;;;4963044;28;20476;-46
2023/08/28 08:03:28;;;;;;;36.03;34.53;;;21.80;92.70;;;;;;4962386;28;20881;-48
2023/08/28 08:05:55;;;;;;;35.40;34.00;;;21.80;92.60;;;;;;4959433;28;20999;-46
2023/08/28 08:08:22;;;;;;;35.77;34.47;;;21.80;92.70;;;;;;4959672;28;20503;-48
2023/08/28 08:10:49;;;;;;;37.13;35.73;;;21.80;92.70;;;;;;4959644;28;21016;-46
2023/08/28 08:13:17;;;;;;;37.10;35.60;;;21.80;92.80;;;;;;4959430;28;20584;-45
2023/08/28 08:15:44;;;;;;;38.40;36.90;;;21.80;92.90;;;;;;4964264;28;20480;-46
2023/08/28 08:18:12;;;;;;;36.10;34.67;;;21.80;92.80;;;;;;4965660;28;20476;-47
2023/08/28 08:20:39;;;;;;;36.80;35.50;;;21.80;92.90;;;;;;4963991;28;20744;-48
2023/08/28 08:23:06;;;;;;;37.00;35.40;;;21.80;92.90;;;;;;4962409;28;20480;-46
2023/08/28 08:25:33;;;;;;;38.30;36.67;;;21.70;92.90;;;;;;4963512;28;20481;-46
2023/08/28 08:28:00;;;;;;;37.90;36.30;;;21.80;93.00;;;;;;4969199;28;20449;-48
2023/08/28 08:30:26;;;;;;;38.73;37.33;;;21.80;93.00;;;;;;4962562;28;20491;-47
2023/08/28 08:32:53;;;;;;;38.93;37.43;;;21.80;93.00;;;;;;4964859;28;20511;-46
2023/08/28 08:35:21;;;;;;;39.33;37.93;;;21.80;93.00;;;;;;4965028;28;20487;-45
2023/08/28 08:37:52;;;;;;;37.63;36.23;;;21.80;93.10;;;;;;4961824;28;20473;-46
2023/08/28 08:40:24;;;;;;;34.20;32.70;;;21.80;93.10;;;;;;4962013;28;20453;-46
2023/08/28 08:42:51;;;;;;;36.53;35.13;;;21.80;93.30;;;;;;4954056;28;20932;-48
2023/08/28 08:45:18;;;;;;;38.43;36.83;;;21.80;93.20;;;;;;4961944;28;20445;-49
2023/08/28 08:47:51;;;;;;;37.80;36.10;;;21.80;93.20;;;;;;4964673;28;20874;-46
2023/08/28 08:50:21;;;;;;;36.43;35.03;;;21.80;93.20;;;;;;4964955;28;20483;-46
2023/08/28 08:52:49;;;;;;;35.60;34.30;;;21.80;93.20;;;;;;4961118;28;20508;-48
2023/08/28 08:55:24;;;;;;;37.97;36.37;;;21.80;93.30;;;;;;4961101;28;20473;-47
2023/08/28 08:57:55;;;;;;;37.67;36.27;;;21.80;93.40;;;;;;4953577;28;20479;-47
2023/08/28 09:00:22;;;;;;;36.20;34.77;;;21.80;93.40;;;;;;4961818;28;20444;-46
2023/08/28 09:02:51;;;;;;;37.80;36.40;;;21.80;93.30;;;;;;4964235;28;20507;-47
2023/08/28 09:05:20;;;;;;;37.70;36.30;;;21.80;93.40;;;;;;4965134;28;20468;-47
2023/08/28 09:07:48;;;;;;;36.80;35.40;;;21.80;93.20;;;;;;4962317;28;20473;-47
2023/08/28 09:10:15;;;;;;;36.97;35.47;;;21.80;93.30;;;;;;4962246;28;20472;-46
2023/08/28 09:12:42;;;;;;;37.07;35.67;;;21.80;93.30;;;;;;4964606;28;20909;-46
2023/08/28 09:15:11;;;;;;;38.63;37.23;;;21.80;93.30;;;;;;4964786;28;20463;-46
2023/08/28 09:17:42;;;;;;;37.30;35.90;;;21.80;93.30;;;;;;4963122;28;20444;-47
2023/08/28 09:20:13;;;;;;;36.67;35.27;;;21.90;93.30;;;;;;4961578;28;20481;-46
2023/08/28 09:22:46;;;;;;;36.47;35.07;;;21.90;93.30;;;;;;4963539;28;20496;-45
2023/08/28 09:25:13;;;;;;;40.20;38.70;;;21.90;93.30;;;;;;4964499;28;20472;-48
2023/08/28 09:27:42;;;;;;;37.70;36.10;;;21.90;93.20;;;;;;4963226;28;20471;-45
2023/08/28 09:30:10;;;;;;;40.20;38.53;;;21.90;93.30;;;;;;4960794;28;20441;-46
2023/08/28 09:32:45;;;;;;;38.00;36.50;;;21.90;93.30;;;;;;4962864;28;20515;-48
2023/08/28 09:35:14;;;;;;;40.57;38.93;;;21.90;93.20;;;;;;4964498;28;20455;-46
2023/08/28 09:37:42;;;;;;;37.27;35.93;;;21.90;93.30;;;;;;4962621;28;20536;-46
2023/08/28 09:40:10;;;;;;;38.70;37.30;;;21.90;93.20;;;;;;4960932;28;20498;-46
2023/08/28 09:42:38;;;;;;;36.77;35.47;;;21.90;93.10;;;;;;4962447;28;20444;-46
2023/08/28 09:45:07;;;;;;;34.97;33.50;;;21.90;93.20;;;;;;4964069;28;20494;-46
2023/08/28 09:47:35;;;;;;;36.10;34.70;;;21.90;93.20;;;;;;4962850;28;20478;-47
2023/08/28 09:50:04;;;;;;;35.40;33.90;;;21.90;93.10;;;;;;4960614;28;20475;-46
2023/08/28 09:52:31;;;;;;;36.87;35.50;;;21.90;93.20;;;;;;4961191;28;20484;-45
2023/08/28 09:55:04;;;;;;;38.97;37.37;;;21.90;93.40;;;;;;4963475;28;20468;-46
2023/08/28 09:57:31;;;;;;;37.20;35.70;;;21.90;93.10;;;;;;4962773;28;20452;-48
2023/08/28 09:59:58;;;;;;;38.03;36.63;;;21.90;93.10;;;;;;4955806;28;20863;-47
2023/08/28 10:02:27;;;;;;;36.97;35.37;;;21.90;93.10;;;;;;4963874;28;20475;-48
2023/08/28 10:04:54;;;;;;;34.77;33.47;;;21.90;93.10;;;;;;4965492;28;20935;-46
2023/08/28 10:07:24;;;;;;;35.13;33.83;;;21.90;93.10;;;;;;4966952;28;20544;-45
2023/08/28 10:09:52;;;;;;;36.73;35.33;;;21.90;92.90;;;;;;4963077;28;20444;-46
2023/08/28 10:12:22;;;;;;;34.33;33.03;;;21.90;92.90;;;;;;4962821;28;20445;-46
2023/08/28 10:14:53;;;;;;;38.37;36.80;;;21.90;92.90;;;;;;4964898;28;21037;-46
2023/08/28 10:17:24;;;;;;;37.70;36.30;;;21.90;92.80;;;;;;4967524;28;20476;-46
2023/08/28 10:19:56;;;;;;;38.13;36.63;;;21.90;92.80;;;;;;4964435;28;20948;-46
2023/08/28 10:22:24;;;;;;;34.70;33.40;;;21.90;92.70;;;;;;4964292;28;20468;-46
2023/08/28 10:24:56;;;;;;;36.63;35.23;;;21.90;92.70;;;;;;4965783;28;20499;-48
2023/08/28 10:27:25;;;;;;;36.60;35.20;;;21.90;92.60;;;;;;4964575;28;20447;-46
2023/08/28 10:29:54;;;;;;;35.13;33.73;;;21.90;92.50;;;;;;4961227;28;20956;-46
2023/08/28 10:32:22;;;;;;;34.50;33.20;;;21.90;92.50;;;;;;4961131;28;20948;-46
2023/08/28 10:34:52;;;;;;;34.70;33.30;;;21.90;92.50;;;;;;4963309;28;20468;-46
2023/08/28 10:37:19;;;;;;;36.00;34.40;;;21.90;92.60;;;;;;4964422;28;20871;-47
2023/08/28 10:39:46;;;;;;;35.50;34.10;;;21.90;92.50;;;;;;4962046;28;20480;-46
2023/08/28 10:42:17;;;;;;;36.87;35.37;;;21.90;92.60;;;;;;4961149;28;20861;-49
2023/08/28 10:44:47;;;;;;;37.60;35.90;;;21.90;92.60;;;;;;4962675;28;20496;-47
2023/08/28 10:47:16;;;;;;;35.93;34.53;;;21.90;92.70;;;;;;4964400;28;20497;-45
2023/08/28 10:49:43;;;;;;;36.13;34.83;;;21.90;92.60;;;;;;4962312;28;20531;-46
2023/08/28 10:52:11;;;;;;;38.23;36.73;;;21.90;92.60;;;;;;4960917;28;20481;-47
2023/08/28 10:54:39;;;;;;;37.30;35.90;;;21.90;92.50;;;;;;4961590;28;20567;-46
2023/08/28 10:57:10;;;;;;;37.47;36.07;;;21.90;92.50;;;;;;4964154;28;20472;-47
2023/08/28 10:59:45;;;;;;;37.20;35.80;;;21.90;92.50;;;;;;4963165;28;20474;-47
2023/08/28 11:02:12;;;;;;;37.17;35.87;;;21.90;92.40;;;;;;4960691;28;20480;-48
2023/08/28 11:04:41;;;;;;;36.63;35.23;;;21.90;92.40;;;;;;4961528;28;20504;-47
2023/08/28 11:07:31;;;;;;;34.90;33.60;;;21.90;92.10;;;;;;4963910;28;20449;-46
2023/08/28 11:10:16;;;;;;;33.77;32.47;;;21.90;91.90;;;;;;4948499;28;20459;-46
2023/08/28 11:12:51;;;;;;;35.80;34.50;;;21.90;91.80;;;;;;4962029;28;20536;-46
2023/08/28 11:15:27;;;;;;;36.10;34.67;;;21.90;91.80;;;;;;4963717;28;20615;-46
2023/08/28 11:18:33;;;;;;;39.00;37.60;;;21.90;91.70;;;;;;4959608;28;20459;-46
2023/08/28 11:21:02;;;;;;;36.27;34.97;;;22.00;91.70;;;;;;4950803;28;20472;-46
2023/08/28 11:23:35;;;;;;;35.57;34.27;;;21.90;91.60;;;;;;4960183;28;20460;-46
2023/08/28 11:26:04;;;;;;;37.67;36.17;;;21.90;91.60;;;;;;4953230;28;20441;-46
2023/08/28 11:28:33;;;;;;;37.90;36.50;;;22.00;91.70;;;;;;4960239;28;20448;-45
2023/08/28 11:31:04;;;;;;;37.50;36.10;;;22.00;91.70;;;;;;4963580;28;20440;-45
2023/08/28 11:33:39;;;;;;;35.50;34.20;;;22.00;91.70;;;;;;4963423;28;20575;-45
2023/08/28 11:36:07;;;;;;;38.13;36.73;;;22.00;91.70;;;;;;4953569;28;20444;-46
2023/08/28 11:38:34;;;;;;;36.80;35.37;;;22.00;91.70;;;;;;4960354;28;20495;-45
2023/08/28 11:41:04;;;;;;;37.90;36.37;;;22.00;91.50;;;;;;4963465;28;20501;-49
2023/08/28 11:43:37;;;;;;;37.80;36.30;;;22.00;91.40;;;;;;4963455;28;20496;-46
2023/08/28 11:46:06;;;;;;;41.20;39.60;;;22.00;91.20;;;;;;4953181;28;20495;-45
2023/08/28 11:48:34;;;;;;;35.90;34.60;;;22.00;91.20;;;;;;4959998;28;20507;-46
2023/08/28 11:51:03;;;;;;;35.90;34.60;;;22.00;91.20;;;;;;4963148;28;20475;-45
2023/08/28 11:53:31;;;;;;;37.90;36.50;;;22.00;91.20;;;;;;4963147;28;20490;-46
2023/08/28 11:56:00;;;;;;;36.97;35.60;;;22.00;91.20;;;;;;4951915;28;20477;-46
2023/08/28 11:58:27;;;;;;;36.57;35.20;;;22.00;91.20;;;;;;4959871;28;20480;-46
2023/08/28 12:00:54;;;;;;;35.63;34.33;;;22.00;91.10;;;;;;4962554;28;20472;-50
2023/08/28 12:03:23;;;;;;;34.57;33.37;;;22.10;91.20;;;;;;4962998;28;20456;-45
2023/08/28 12:05:50;;;;;;;33.53;32.23;;;22.10;91.20;;;;;;4960559;28;20796;-45
2023/08/28 12:08:17;;;;;;;35.50;34.20;;;22.10;91.20;;;;;;4959735;28;20472;-46
2023/08/28 12:10:44;;;;;;;34.00;32.70;;;22.10;91.20;;;;;;4960928;28;20481;-47
2023/08/28 12:13:11;;;;;;;32.33;31.13;;;22.10;91.10;;;;;;4962799;28;21022;-46
2023/08/28 12:15:38;;;;;;;35.83;34.53;;;22.10;91.00;;;;;;4962054;28;20494;-45
2023/08/28 12:18:06;;;;;;;34.90;33.60;;;22.10;91.00;;;;;;4959566;28;20983;-46
2023/08/28 12:20:37;;;;;;;39.67;38.10;;;22.10;91.00;;;;;;4959550;28;20453;-46
2023/08/28 12:23:04;;;;;;;36.77;35.37;;;22.10;91.00;;;;;;4952174;28;20441;-46
2023/08/28 12:25:34;;;;;;;37.30;35.90;;;22.10;91.00;;;;;;4959394;28;20508;-46
2023/08/28 12:28:06;;;;;;;38.60;37.00;;;22.10;91.00;;;;;;4951397;28;20451;-45
2023/08/28 12:30:33;;;;;;;38.60;36.80;;;22.10;91.00;;;;;;4959412;28;20460;-46
2023/08/28 12:33:03;;;;;;;37.97;36.57;;;22.10;91.00;;;;;;4951432;28;21127;-49